createdAt,value
2022-12-23T00:00:57.934Z,119.00
2022-12-23T00:04:59.679Z,119.50
2022-12-23T00:09:01.719Z,134.05
2022-12-23T00:13:22.508Z,119.13
2022-12-23T00:17:24.559Z,125.32
2022-12-23T00:21:26.364Z,130.45
2022-12-23T00:25:40.348Z,123.95
2022-12-23T00:29:42.456Z,117.32
2022-12-23T00:33:46.472Z,125.07
2022-12-23T00:37:48.216Z,132.00
2022-12-23T00:42:08.701Z,114.65
2022-12-23T00:46:10.449Z,103.00
2022-12-23T00:50:12.411Z,113.70
2022-12-23T00:54:14.216Z,127.45
2022-12-23T00:58:17.541Z,109.45
2022-12-23T01:02:37.835Z,151.45
2022-12-23T01:06:40.102Z,157.15
2022-12-23T01:10:41.827Z,142.75
2022-12-23T01:14:43.794Z,183.88
2022-12-23T01:18:45.469Z,157.63
2022-12-23T01:22:47.719Z,184.85
2022-12-23T01:26:49.378Z,179.68
2022-12-23T01:30:51.319Z,169.98
2022-12-23T01:34:53.167Z,173.70
2022-12-23T01:38:58.096Z,186.95
2022-12-23T01:42:59.826Z,188.88
2022-12-23T01:47:03.908Z,163.35
2022-12-23T01:51:16.097Z,186.70
2022-12-23T01:55:25.329Z,171.45
2022-12-23T01:59:46.195Z,186.02
2022-12-23T02:03:50.278Z,163.52
2022-12-23T02:08:12.373Z,167.32
2022-12-23T02:12:41.388Z,208.77
2022-12-23T02:16:53.744Z,187.18
2022-12-23T02:21:27.532Z,212.95
2022-12-23T02:25:41.696Z,204.48
2022-12-23T02:30:05.541Z,209.45
2022-12-23T02:34:38.423Z,177.48
2022-12-23T02:39:05.957Z,180.05
2022-12-23T02:43:24.283Z,200.35
2022-12-23T02:47:38.047Z,181.35
2022-12-23T02:51:44.350Z,185.02
2022-12-23T02:55:49.097Z,156.35
2022-12-23T02:59:52.095Z,196.25
2022-12-23T03:03:54.383Z,176.85
2022-12-23T03:08:00.222Z,176.05
2022-12-23T03:12:17.274Z,178.02
2022-12-23T03:16:56.674Z,173.18
2022-12-23T03:25:22.011Z,161.23
2022-12-23T03:29:40.821Z,152.18
2022-12-23T03:33:47.993Z,148.07
2022-12-23T03:37:53.212Z,166.15
2022-12-23T03:42:06.333Z,144.52
2022-12-23T03:46:12.989Z,176.88
2022-12-23T03:50:19.405Z,140.13
2022-12-23T03:54:27.987Z,141.25
2022-12-23T03:58:42.400Z,147.95
2022-12-23T04:03:03.344Z,133.60
2022-12-23T04:07:11.142Z,128.68
2022-12-23T04:11:13.367Z,166.48
2022-12-23T04:15:20.810Z,151.15
2022-12-23T04:19:23.258Z,112.40
2022-12-23T04:23:24.910Z,126.50
2022-12-23T04:27:26.927Z,135.98
2022-12-23T04:31:28.730Z,150.38
2022-12-23T04:35:30.859Z,146.82
2022-12-23T04:39:32.553Z,139.30
2022-12-23T04:43:34.547Z,138.15
2022-12-23T04:47:36.229Z,118.15
2022-12-23T04:51:38.205Z,131.85
2022-12-23T04:55:39.896Z,151.23
2022-12-23T04:59:42.180Z,124.47
2022-12-23T05:03:43.915Z,132.32
2022-12-23T05:07:49.612Z,120.97
2022-12-23T05:11:51.499Z,92.22
2022-12-23T05:15:54.391Z,94.40
2022-12-23T05:19:56.374Z,105.93
2022-12-23T05:23:58.071Z,96.78
2022-12-23T05:28:00.058Z,93.35
2022-12-23T05:32:01.814Z,97.03
2022-12-23T05:36:04.673Z,91.10
2022-12-23T05:40:06.996Z,100.95
2022-12-23T05:44:09.267Z,91.78
2022-12-23T05:48:11.084Z,79.88
2022-12-23T05:52:13.137Z,103.03
2022-12-23T05:56:14.846Z,96.88
2022-12-23T06:00:17.294Z,89.82
2022-12-23T06:04:19.062Z,94.43
2022-12-23T06:08:21.306Z,97.85
2022-12-23T06:12:23.076Z,97.20
2022-12-23T06:16:25.096Z,90.50
2022-12-23T06:20:26.783Z,95.03
2022-12-23T06:24:28.727Z,92.78
2022-12-23T06:28:30.480Z,99.40
2022-12-23T06:32:37.935Z,106.60
2022-12-23T06:36:40.364Z,95.97
2022-12-23T06:40:42.340Z,99.80
2022-12-23T06:44:44.071Z,96.78
2022-12-23T06:48:46.020Z,91.60
2022-12-23T06:52:49.002Z,101.10
2022-12-23T06:56:51.054Z,89.18
2022-12-23T07:00:52.750Z,101.07
2022-12-23T07:04:54.710Z,111.25
2022-12-23T07:08:56.391Z,89.70
2022-12-23T07:12:58.362Z,92.82
2022-12-23T07:17:00.122Z,94.63
2022-12-23T07:21:03.199Z,82.10
2022-12-23T07:25:05.343Z,85.25
2022-12-23T07:29:07.711Z,87.07
2022-12-23T07:33:09.435Z,83.03
2022-12-23T07:37:11.483Z,85.68
2022-12-23T07:41:13.278Z,78.07
2022-12-23T07:45:16.177Z,84.00
2022-12-23T07:49:18.039Z,86.65
2022-12-23T07:53:20.349Z,78.28
2022-12-23T07:57:22.002Z,80.07
2022-12-23T08:01:24.096Z,86.25
2022-12-23T08:05:26.062Z,79.18
2022-12-23T08:09:28.065Z,77.13
2022-12-23T08:13:31.714Z,74.05
2022-12-23T08:17:33.744Z,87.25
2022-12-23T08:21:35.463Z,75.43
2022-12-23T08:25:37.418Z,82.78
2022-12-23T08:29:40.522Z,82.15
2022-12-23T08:33:45.450Z,78.60
2022-12-23T08:37:47.158Z,88.10
2022-12-23T08:41:49.323Z,77.10
2022-12-23T08:45:51.320Z,78.45
2022-12-23T08:49:53.263Z,76.28
2022-12-23T08:54:00.635Z,83.88
2022-12-23T08:58:03.285Z,76.85
2022-12-23T09:02:05.081Z,82.15
2022-12-23T09:06:13.266Z,71.35
2022-12-23T09:10:15.076Z,71.53
2022-12-23T09:14:17.113Z,71.65
2022-12-23T09:18:18.887Z,85.07
2022-12-23T09:22:20.865Z,77.05
2022-12-23T09:26:25.669Z,83.05
2022-12-23T09:30:27.829Z,78.55
2022-12-23T09:34:29.490Z,88.15
2022-12-23T09:38:31.655Z,83.38
2022-12-23T09:42:51.830Z,89.40
2022-12-23T09:46:58.345Z,77.53
2022-12-23T09:51:01.954Z,75.82
2022-12-23T09:55:04.322Z,68.65
2022-12-23T09:59:14.741Z,73.28
2022-12-23T10:03:26.165Z,79.20
2022-12-23T10:07:39.938Z,77.22
2022-12-23T10:11:44.969Z,80.95
2022-12-23T10:15:50.470Z,75.40
2022-12-23T10:19:54.094Z,82.93
2022-12-23T10:23:55.922Z,315.60
2022-12-23T10:27:57.869Z,83.35
2022-12-23T10:32:11.661Z,170.35
2022-12-23T10:36:32.063Z,107.20
2022-12-23T10:41:08.961Z,96.55
2022-12-23T10:45:49.389Z,98.28
2022-12-23T10:50:14.345Z,226.90
2022-12-23T10:54:20.270Z,118.07
2022-12-23T10:58:22.606Z,136.32
2022-12-23T11:02:47.277Z,101.70
2022-12-23T11:07:18.110Z,96.30
2022-12-23T11:11:14.512Z,104.07
2022-12-23T11:15:29.232Z,116.95
2022-12-23T11:19:31.070Z,116.95
2022-12-23T11:23:36.555Z,106.65
2022-12-23T11:27:44.493Z,112.90
2022-12-23T11:31:46.752Z,116.43
2022-12-23T11:36:00.521Z,110.60
2022-12-23T11:40:14.676Z,109.75
2022-12-23T11:44:32.857Z,119.18
2022-12-23T11:48:34.511Z,123.70
2022-12-23T11:52:36.761Z,115.43
2022-12-23T11:56:40.351Z,110.47
2022-12-23T12:00:55.581Z,107.38
2022-12-23T12:05:05.261Z,119.28
2022-12-23T12:09:07.345Z,121.45
2022-12-23T12:13:28.311Z,133.10
2022-12-23T12:17:45.224Z,132.82
2022-12-23T12:21:49.390Z,133.50
2022-12-23T12:25:57.323Z,117.15
2022-12-23T12:30:08.431Z,122.80
2022-12-23T12:34:33.902Z,126.95
2022-12-23T12:38:39.143Z,121.65
2022-12-23T12:42:44.136Z,132.07
2022-12-23T12:46:58.748Z,124.40
2022-12-23T12:51:27.285Z,125.75
2022-12-23T12:55:34.824Z,112.30
2022-12-23T12:59:38.746Z,119.40
2022-12-23T13:04:12.539Z,116.80
2022-12-23T13:08:20.712Z,144.50
2022-12-23T13:12:46.071Z,141.30
2022-12-23T13:17:05.178Z,132.68
2022-12-23T13:25:26.888Z,136.02
2022-12-23T13:29:58.265Z,150.48
2022-12-23T13:34:19.150Z,144.88
2022-12-23T13:38:23.754Z,140.18
2022-12-23T13:42:33.093Z,143.25
2022-12-23T13:47:15.669Z,142.68
2022-12-23T13:51:35.871Z,157.25
2022-12-23T13:56:19.511Z,138.32
2022-12-23T14:00:30.681Z,139.80
2022-12-23T14:04:58.735Z,156.27
2022-12-23T14:09:02.978Z,143.83
2022-12-23T14:13:08.717Z,151.63
2022-12-23T14:17:30.348Z,158.05
2022-12-23T14:21:41.183Z,172.05
2022-12-23T14:25:55.396Z,140.88
2022-12-23T14:30:22.380Z,165.82
2022-12-23T14:34:26.427Z,138.07
2022-12-23T14:38:32.769Z,133.00
2022-12-23T14:42:43.005Z,141.95
2022-12-23T14:46:45.528Z,136.98
2022-12-23T14:50:59.491Z,127.07
2022-12-23T14:55:31.944Z,125.65
2022-12-23T14:59:48.168Z,140.75
2022-12-23T15:03:57.538Z,133.23
2022-12-23T15:08:04.353Z,133.55
2022-12-23T15:12:16.025Z,130.18
2022-12-23T15:16:18.806Z,130.20
2022-12-23T15:20:23.845Z,143.00
2022-12-23T15:24:26.174Z,125.93
2022-12-23T15:28:39.353Z,123.85
2022-12-23T15:32:44.340Z,121.68
2022-12-23T15:36:48.006Z,109.28
2022-12-23T15:41:01.659Z,121.35
2022-12-23T15:45:23.368Z,141.40
2022-12-23T15:49:25.373Z,125.10
2022-12-23T15:53:34.876Z,111.75
2022-12-23T15:57:50.105Z,115.10
2022-12-23T16:01:53.291Z,111.90
2022-12-23T16:06:05.090Z,103.32
2022-12-23T16:10:21.833Z,112.05
2022-12-23T16:14:27.769Z,122.85
2022-12-23T16:18:32.214Z,107.95
2022-12-23T16:22:36.173Z,117.95
2022-12-23T16:26:42.489Z,116.65
2022-12-23T16:30:49.476Z,102.57
2022-12-23T16:34:51.642Z,106.32
2022-12-23T16:39:00.544Z,116.65
2022-12-23T16:43:02.453Z,119.32
2022-12-23T16:47:12.754Z,109.63
2022-12-23T16:51:20.235Z,120.20
2022-12-23T16:55:21.940Z,106.18
2022-12-23T16:59:25.877Z,111.95
2022-12-23T17:03:27.947Z,107.07
2022-12-23T17:07:29.574Z,103.80
2022-12-23T17:11:37.820Z,109.40
2022-12-23T17:15:39.661Z,114.15
2022-12-23T17:19:42.478Z,127.43
2022-12-23T17:23:44.236Z,118.78
2022-12-23T17:27:46.160Z,158.07
2022-12-23T17:31:49.071Z,119.90
2022-12-23T17:35:51.130Z,133.40
2022-12-23T17:39:52.902Z,124.53
2022-12-23T17:43:55.337Z,127.03
2022-12-23T17:47:57.618Z,133.93
2022-12-23T17:51:59.580Z,117.55
2022-12-23T17:56:01.212Z,118.05
2022-12-23T18:00:03.899Z,119.85
2022-12-23T18:04:13.593Z,102.75
2022-12-23T18:08:16.927Z,115.88
2022-12-23T18:12:37.400Z,115.05
2022-12-23T18:16:39.615Z,108.50
2022-12-23T18:20:42.876Z,96.05
2022-12-23T18:24:46.029Z,106.82
2022-12-23T18:28:48.028Z,106.18
2022-12-23T18:32:49.879Z,112.60
2022-12-23T18:36:52.324Z,112.85
2022-12-23T18:40:56.531Z,95.15
2022-12-23T18:44:58.207Z,92.13
2022-12-23T18:49:00.229Z,89.72
2022-12-23T18:53:02.777Z,80.30
2022-12-23T18:57:05.184Z,92.15
2022-12-23T19:01:14.751Z,96.75
2022-12-23T19:05:23.544Z,94.40
2022-12-23T19:09:26.192Z,86.45
2022-12-23T19:13:28.073Z,84.88
2022-12-23T19:17:30.021Z,87.68
2022-12-23T19:21:31.660Z,104.13
2022-12-23T19:25:34.127Z,90.03
2022-12-23T19:29:35.993Z,98.35
2022-12-23T19:33:38.788Z,92.70
2022-12-23T19:37:41.634Z,87.43
2022-12-23T19:41:43.801Z,105.60
2022-12-23T19:45:45.468Z,101.13
2022-12-23T19:49:47.442Z,106.03
2022-12-23T19:53:51.588Z,92.97
2022-12-23T19:57:53.500Z,93.85
2022-12-23T20:01:55.273Z,106.50
2022-12-23T20:05:57.329Z,106.57
2022-12-23T20:09:59.203Z,72.97
2022-12-23T20:14:02.176Z,81.22
2022-12-23T20:18:04.058Z,92.65
2022-12-23T20:22:05.977Z,146.50
2022-12-23T20:26:08.143Z,127.10
2022-12-23T20:30:11.195Z,152.40
2022-12-23T20:34:17.272Z,148.40
2022-12-23T20:38:19.766Z,115.40
2022-12-23T20:42:21.723Z,73.85
2022-12-23T20:46:23.821Z,71.97
2022-12-23T20:50:25.573Z,44.83
2022-12-23T20:54:32.725Z,89.72
2022-12-23T20:58:57.799Z,111.70
2022-12-23T21:03:03.827Z,108.63
2022-12-23T21:07:08.704Z,128.40
2022-12-23T21:11:10.697Z,128.50
2022-12-23T21:15:12.479Z,133.38
2022-12-23T21:19:20.529Z,97.95
2022-12-23T21:23:22.212Z,97.00
2022-12-23T21:27:24.190Z,207.63
2022-12-23T21:31:27.516Z,93.93
2022-12-23T21:35:29.361Z,131.50
2022-12-23T21:39:31.547Z,80.68
2022-12-23T21:43:33.921Z,88.95
2022-12-23T21:47:36.308Z,88.20
2022-12-23T21:51:40.639Z,132.55
2022-12-23T21:55:43.297Z,162.07
2022-12-23T21:59:45.206Z,122.65
2022-12-23T22:03:49.247Z,96.40
2022-12-23T22:07:51.165Z,114.05
2022-12-23T22:11:52.861Z,118.78
2022-12-23T22:15:54.877Z,130.07
2022-12-23T22:19:56.805Z,131.90
2022-12-23T22:23:59.529Z,169.25
2022-12-23T22:28:02.915Z,121.75
2022-12-23T22:32:05.112Z,82.57
2022-12-23T22:36:09.238Z,81.80
2022-12-23T22:40:11.457Z,122.25
2022-12-23T22:44:13.621Z,91.47
2022-12-23T22:48:15.547Z,106.60
2022-12-23T22:52:17.579Z,126.80
2022-12-23T22:56:20.891Z,100.18
2022-12-23T23:00:22.648Z,101.65
2022-12-23T23:04:24.591Z,76.40
2022-12-23T23:08:27.272Z,94.53
2022-12-23T23:12:29.268Z,83.13
2022-12-23T23:16:31.767Z,87.53
2022-12-23T23:20:33.459Z,79.75
2022-12-23T23:24:35.439Z,95.93
2022-12-23T23:28:39.323Z,122.40
2022-12-23T23:32:41.417Z,125.05
2022-12-23T23:36:43.246Z,119.35
2022-12-23T23:40:47.731Z,72.55
2022-12-23T23:44:49.385Z,71.40
2022-12-23T23:48:51.352Z,80.57
2022-12-23T23:52:52.993Z,87.80
2022-12-23T23:56:55.043Z,81.90
